createdAt,value
2022-11-30T00:01:25.309Z,6.13
2022-11-30T00:03:54.902Z,5.83
2022-11-30T00:06:23.931Z,6.22
2022-11-30T00:08:58.189Z,6.33
2022-11-30T00:11:28.770Z,6.05
2022-11-30T00:13:57.103Z,6.25
2022-11-30T00:16:25.122Z,5.92
2022-11-30T00:18:53.591Z,6.32
2022-11-30T00:21:22.202Z,6.26
2022-11-30T00:23:50.190Z,6.14
2022-11-30T00:26:19.627Z,5.88
2022-11-30T00:28:48.006Z,6.23
2022-11-30T00:31:17.458Z,6.00
2022-11-30T00:33:45.929Z,5.87
2022-11-30T00:36:14.763Z,6.19
2022-11-30T00:38:43.745Z,6.21
2022-11-30T00:41:12.540Z,6.05
2022-11-30T00:43:40.592Z,6.45
2022-11-30T00:46:11.919Z,6.60
2022-11-30T00:48:41.331Z,6.08
2022-11-30T00:51:10.820Z,6.06
2022-11-30T00:53:39.414Z,6.14
2022-11-30T00:56:08.871Z,6.72
2022-11-30T00:58:37.092Z,6.74
2022-11-30T01:01:05.566Z,6.53
2022-11-30T01:03:34.560Z,6.71
2022-11-30T01:06:07.044Z,6.62
2022-11-30T01:08:35.865Z,6.93
2022-11-30T01:11:13.251Z,6.71
2022-11-30T01:13:41.821Z,6.59
2022-11-30T01:16:12.913Z,6.88
2022-11-30T01:18:41.841Z,6.80
2022-11-30T01:21:13.862Z,6.82
2022-11-30T01:23:42.223Z,6.71
2022-11-30T01:26:10.731Z,6.31
2022-11-30T01:28:41.083Z,6.61
2022-11-30T01:31:11.319Z,6.47
2022-11-30T01:33:39.815Z,6.17
2022-11-30T01:36:12.882Z,6.51
2022-11-30T01:38:43.290Z,6.39
2022-11-30T01:41:13.232Z,6.43
2022-11-30T01:43:44.892Z,6.45
2022-11-30T01:46:27.762Z,6.67
2022-11-30T01:49:05.481Z,6.61
2022-11-30T01:51:52.371Z,6.51
2022-11-30T01:54:24.511Z,6.57
2022-11-30T01:57:05.016Z,6.56
2022-11-30T01:59:33.311Z,6.80
2022-11-30T02:02:01.242Z,6.68
2022-11-30T02:04:31.768Z,6.67
2022-11-30T02:07:00.451Z,6.47
2022-11-30T02:09:29.511Z,6.81
2022-11-30T02:11:58.039Z,6.62
2022-11-30T02:14:40.251Z,6.44
2022-11-30T02:17:21.872Z,6.72
2022-11-30T02:19:59.513Z,6.61
2022-11-30T02:22:54.520Z,6.61
2022-11-30T02:25:37.353Z,6.59
2022-11-30T02:28:28.042Z,6.75
2022-11-30T02:30:58.771Z,6.84
2022-11-30T02:33:29.584Z,6.69
2022-11-30T02:35:58.871Z,6.67
2022-11-30T02:38:27.872Z,6.45
2022-11-30T02:40:56.040Z,6.75
2022-11-30T02:43:26.536Z,6.79
2022-11-30T02:45:58.058Z,6.80
2022-11-30T02:48:44.688Z,6.87
2022-11-30T02:51:17.951Z,6.86
2022-11-30T02:53:46.442Z,7.19
2022-11-30T02:56:15.025Z,6.79
2022-11-30T02:58:43.202Z,6.91
2022-11-30T03:01:13.606Z,6.99
2022-11-30T03:03:41.976Z,7.00
2022-11-30T03:06:09.881Z,6.87
2022-11-30T03:08:37.970Z,7.02
2022-11-30T03:11:06.572Z,6.60
2022-11-30T03:13:34.985Z,6.91
2022-11-30T03:16:10.679Z,7.08
2022-11-30T03:18:39.612Z,6.82
2022-11-30T03:21:08.704Z,7.09
2022-11-30T03:23:37.512Z,7.02
2022-11-30T03:26:06.512Z,7.02
2022-11-30T03:28:35.976Z,6.95
2022-11-30T03:31:04.512Z,7.33
2022-11-30T03:33:33.165Z,6.98
2022-11-30T03:36:02.613Z,6.59
2022-11-30T03:38:30.773Z,6.95
2022-11-30T03:41:08.051Z,6.95
2022-11-30T03:43:36.102Z,6.69
2022-11-30T03:46:04.654Z,6.89
2022-11-30T03:48:32.931Z,7.20
2022-11-30T03:51:00.991Z,6.86
2022-11-30T03:53:29.262Z,7.23
2022-11-30T03:55:59.692Z,6.71
2022-11-30T03:58:28.072Z,7.12
2022-11-30T04:01:00.591Z,6.63
2022-11-30T04:03:29.694Z,7.03
2022-11-30T04:05:58.200Z,7.05
2022-11-30T04:08:27.032Z,6.86
2022-11-30T04:10:56.650Z,6.91
2022-11-30T04:13:25.541Z,7.20
2022-11-30T04:15:54.308Z,7.10
2022-11-30T04:18:24.222Z,7.05
2022-11-30T04:20:56.643Z,7.06
2022-11-30T04:23:26.393Z,7.16
2022-11-30T04:25:54.320Z,7.29
2022-11-30T04:28:22.265Z,7.23
2022-11-30T04:30:50.697Z,7.00
2022-11-30T04:33:18.612Z,7.09
2022-11-30T04:35:49.391Z,7.05
2022-11-30T04:38:17.730Z,7.11
2022-11-30T04:40:45.674Z,7.15
2022-11-30T04:43:13.992Z,6.91
2022-11-30T04:45:44.620Z,7.06
2022-11-30T04:48:13.261Z,6.97
2022-11-30T04:50:41.415Z,7.20
2022-11-30T04:53:09.963Z,7.16
2022-11-30T04:55:38.672Z,7.00
2022-11-30T04:58:07.231Z,7.09
2022-11-30T05:00:36.146Z,7.64
2022-11-30T05:03:04.284Z,6.90
2022-11-30T05:05:32.280Z,7.15
2022-11-30T05:08:01.462Z,7.26
2022-11-30T05:10:30.351Z,7.16
2022-11-30T05:12:58.520Z,7.19
2022-11-30T05:15:26.842Z,7.00
2022-11-30T05:17:58.953Z,7.16
2022-11-30T05:20:28.620Z,7.25
2022-11-30T05:22:57.641Z,7.21
2022-11-30T05:25:25.654Z,7.20
2022-11-30T05:27:54.011Z,7.25
2022-11-30T05:30:22.040Z,7.33
2022-11-30T05:32:49.982Z,7.17
2022-11-30T05:35:18.361Z,6.92
2022-11-30T05:37:46.312Z,6.94
2022-11-30T05:40:14.390Z,7.19
2022-11-30T05:42:42.705Z,7.22
2022-11-30T05:45:11.242Z,7.02
2022-11-30T05:47:39.202Z,7.26
2022-11-30T05:50:08.093Z,7.20
2022-11-30T05:52:35.994Z,7.42
2022-11-30T05:55:04.143Z,7.40
2022-11-30T05:57:36.858Z,7.27
2022-11-30T06:00:06.411Z,6.96
2022-11-30T06:02:39.510Z,7.31
2022-11-30T06:05:08.732Z,7.21
2022-11-30T06:07:36.853Z,7.14
2022-11-30T06:10:05.434Z,7.03
2022-11-30T06:12:33.733Z,7.13
2022-11-30T06:15:01.722Z,6.92
2022-11-30T06:17:29.676Z,7.01
2022-11-30T06:19:58.043Z,6.79
2022-11-30T06:22:26.082Z,7.06
2022-11-30T06:24:54.025Z,7.32
2022-11-30T06:27:22.341Z,7.24
2022-11-30T06:29:50.463Z,7.23
2022-11-30T06:32:18.461Z,7.11
2022-11-30T06:34:47.039Z,7.07
2022-11-30T06:37:15.388Z,7.02
2022-11-30T06:40:05.573Z,7.35
2022-11-30T06:42:32.405Z,7.38
2022-11-30T06:45:00.440Z,7.33
2022-11-30T06:47:28.584Z,7.02
2022-11-30T06:49:56.857Z,7.22
2022-11-30T06:52:24.832Z,7.15
2022-11-30T06:54:52.762Z,7.41
2022-11-30T06:57:21.582Z,6.88
2022-11-30T06:59:49.473Z,7.05
2022-11-30T07:02:18.509Z,6.94
2022-11-30T07:04:47.470Z,7.19
2022-11-30T07:07:16.225Z,6.99
2022-11-30T07:09:44.194Z,7.36
2022-11-30T07:12:12.851Z,6.99
2022-11-30T07:14:40.801Z,6.84
2022-11-30T07:17:08.833Z,7.05
2022-11-30T07:19:37.237Z,6.81
2022-11-30T07:22:05.231Z,7.22
2022-11-30T07:24:51.910Z,7.02
2022-11-30T07:29:51.746Z,7.18
2022-11-30T07:32:20.132Z,7.36
2022-11-30T07:34:48.737Z,7.43
2022-11-30T07:37:16.715Z,7.25
2022-11-30T07:39:44.896Z,7.39
2022-11-30T07:42:12.733Z,7.67
2022-11-30T07:44:41.601Z,6.97
2022-11-30T07:47:09.839Z,7.12
2022-11-30T07:49:39.231Z,7.09
2022-11-30T07:52:07.339Z,7.51
2022-11-30T07:54:35.750Z,7.38
2022-11-30T07:57:03.778Z,7.45
2022-11-30T07:59:31.683Z,7.11
2022-11-30T08:02:00.957Z,6.81
2022-11-30T08:04:29.621Z,7.45
2022-11-30T08:06:57.527Z,7.35
2022-11-30T08:09:25.278Z,7.55
2022-11-30T08:11:53.708Z,7.33
2022-11-30T08:14:21.579Z,7.02
2022-11-30T08:16:49.631Z,7.45
2022-11-30T08:19:17.879Z,7.48
2022-11-30T08:21:45.830Z,7.52
2022-11-30T08:24:14.356Z,7.91
2022-11-30T08:26:44.149Z,8.12
2022-11-30T08:29:12.130Z,7.89
2022-11-30T08:31:40.179Z,7.77
2022-11-30T08:34:11.241Z,7.82
2022-11-30T08:36:39.852Z,7.84
2022-11-30T08:39:09.375Z,8.07
2022-11-30T08:41:39.298Z,7.49
2022-11-30T08:44:07.526Z,7.54
2022-11-30T08:46:50.881Z,7.75
2022-11-30T08:49:23.792Z,7.65
2022-11-30T08:52:16.381Z,7.65
2022-11-30T08:54:47.603Z,7.96
2022-11-30T08:57:21.790Z,7.86
2022-11-30T08:59:50.262Z,7.94
2022-11-30T09:02:19.375Z,8.16
2022-11-30T09:04:49.594Z,7.84
2022-11-30T09:07:18.478Z,8.42
2022-11-30T09:09:46.560Z,8.12
2022-11-30T09:12:14.699Z,7.96
2022-11-30T09:14:43.220Z,8.06
2022-11-30T09:17:11.220Z,8.26
2022-11-30T09:19:40.154Z,8.12
2022-11-30T09:22:08.451Z,8.02
2022-11-30T09:24:38.321Z,8.21
2022-11-30T09:27:06.330Z,8.18
2022-11-30T09:29:34.589Z,8.20
2022-11-30T09:32:02.541Z,8.30
2022-11-30T09:34:30.589Z,8.04
2022-11-30T09:36:58.806Z,7.96
2022-11-30T09:39:26.930Z,8.13
2022-11-30T09:42:19.385Z,8.30
2022-11-30T09:45:02.826Z,8.52
2022-11-30T09:48:07.208Z,8.47
2022-11-30T09:50:43.459Z,8.42
2022-11-30T09:53:24.666Z,8.52
2022-11-30T09:55:59.552Z,8.67
2022-11-30T09:58:45.401Z,8.16
2022-11-30T10:01:19.383Z,8.56
2022-11-30T10:03:48.640Z,8.20
2022-11-30T10:06:34.945Z,8.59
2022-11-30T10:09:39.580Z,8.33
2022-11-30T10:12:14.994Z,8.43
2022-11-30T10:15:00.589Z,8.54
2022-11-30T10:18:07.030Z,8.57
2022-11-30T10:20:47.571Z,8.59
2022-11-30T10:23:33.601Z,8.10
2022-11-30T10:26:12.600Z,8.31
2022-11-30T10:28:52.839Z,8.54
2022-11-30T10:31:36.192Z,8.81
2022-11-30T10:34:22.751Z,8.87
2022-11-30T10:37:15.773Z,8.68
2022-11-30T10:40:02.579Z,8.44
2022-11-30T10:42:48.251Z,8.18
2022-11-30T10:45:23.929Z,8.51
2022-11-30T10:48:07.041Z,8.70
2022-11-30T10:50:35.021Z,8.54
2022-11-30T10:53:03.443Z,8.44
2022-11-30T10:55:35.921Z,8.63
2022-11-30T10:58:21.908Z,8.65
2022-11-30T11:01:26.499Z,8.70
2022-11-30T11:04:12.994Z,8.38
2022-11-30T11:06:46.821Z,8.53
2022-11-30T11:09:27.632Z,9.07
2022-11-30T11:11:58.170Z,8.96
2022-11-30T11:14:29.724Z,8.89
2022-11-30T11:17:26.980Z,8.92
2022-11-30T11:19:55.253Z,8.73
2022-11-30T11:22:25.450Z,8.59
2022-11-30T11:25:10.638Z,8.62
2022-11-30T11:27:44.718Z,8.51
2022-11-30T11:30:19.201Z,8.40
2022-11-30T11:33:16.340Z,8.88
2022-11-30T11:35:52.690Z,9.10
2022-11-30T11:38:53.680Z,9.11
2022-11-30T11:41:35.015Z,8.48
2022-11-30T11:44:08.201Z,8.66
2022-11-30T11:46:54.703Z,8.97
2022-11-30T11:49:29.279Z,8.98
2022-11-30T11:52:06.363Z,8.92
2022-11-30T11:54:57.141Z,9.10
2022-11-30T11:57:55.458Z,9.10
2022-11-30T12:00:25.521Z,9.08
2022-11-30T12:03:14.780Z,8.82
2022-11-30T12:06:04.365Z,8.64
2022-11-30T12:08:35.869Z,9.01
2022-11-30T12:11:18.059Z,9.03
2022-11-30T12:13:47.270Z,9.23
2022-11-30T12:16:30.813Z,8.73
2022-11-30T12:19:15.980Z,8.67
2022-11-30T12:21:46.891Z,8.72
2022-11-30T12:24:48.720Z,8.49
2022-11-30T12:27:36.277Z,8.72
2022-11-30T12:30:16.329Z,8.66
2022-11-30T12:33:04.074Z,8.69
2022-11-30T12:35:51.531Z,8.68
2022-11-30T12:38:27.260Z,8.33
2022-11-30T12:41:04.801Z,8.80
2022-11-30T12:44:04.411Z,8.68
2022-11-30T12:47:01.141Z,8.92
2022-11-30T12:49:53.989Z,9.21
2022-11-30T12:52:29.050Z,9.34
2022-11-30T12:55:17.319Z,8.87
2022-11-30T12:58:07.064Z,8.87
2022-11-30T13:00:44.820Z,9.17
2022-11-30T13:03:30.528Z,9.07
2022-11-30T13:06:01.246Z,9.28
2022-11-30T13:08:43.598Z,9.11
2022-11-30T13:11:37.831Z,9.29
2022-11-30T13:14:26.298Z,9.15
2022-11-30T13:17:06.117Z,9.13
2022-11-30T13:19:46.980Z,8.89
2022-11-30T13:22:41.407Z,8.67
2022-11-30T13:26:05.654Z,8.78
2022-11-30T13:28:41.222Z,8.58
2022-11-30T13:31:17.672Z,9.04
2022-11-30T13:33:50.019Z,9.35
2022-11-30T13:36:25.080Z,8.88
2022-11-30T13:39:15.479Z,9.14
2022-11-30T13:41:49.600Z,8.96
2022-11-30T13:44:36.121Z,9.14
2022-11-30T13:47:31.621Z,9.46
2022-11-30T13:50:01.952Z,9.20
2022-11-30T13:52:58.677Z,9.31
2022-11-30T13:55:41.832Z,8.77
2022-11-30T13:58:12.521Z,9.30
2022-11-30T14:00:40.871Z,9.12
2022-11-30T14:03:21.297Z,9.02
2022-11-30T14:05:59.869Z,9.25
2022-11-30T14:08:35.504Z,8.95
2022-11-30T14:11:39.171Z,8.99
2022-11-30T14:14:47.399Z,8.83
2022-11-30T14:17:21.657Z,9.04
2022-11-30T14:19:56.280Z,9.01
2022-11-30T14:22:25.780Z,8.84
2022-11-30T14:24:54.541Z,8.15
2022-11-30T14:27:28.002Z,8.70
2022-11-30T14:30:01.509Z,8.30
2022-11-30T14:32:41.020Z,8.72
2022-11-30T14:35:14.991Z,8.66
2022-11-30T14:37:52.182Z,8.31
2022-11-30T14:40:22.392Z,8.62
2022-11-30T14:43:01.661Z,8.76
2022-11-30T14:45:32.496Z,8.71
2022-11-30T14:48:15.119Z,8.96
2022-11-30T14:50:45.890Z,8.97
2022-11-30T14:53:53.481Z,8.80
2022-11-30T14:57:00.120Z,8.31
2022-11-30T14:59:49.851Z,8.16
2022-11-30T15:02:26.864Z,7.76
2022-11-30T15:04:54.779Z,8.10
2022-11-30T15:07:24.263Z,8.25
2022-11-30T15:09:58.319Z,8.38
2022-11-30T15:12:26.699Z,8.16
2022-11-30T15:15:18.903Z,7.95
2022-11-30T15:17:48.780Z,7.89
2022-11-30T15:20:44.708Z,8.35
2022-11-30T15:23:16.420Z,8.06
2022-11-30T15:25:51.008Z,7.83
2022-11-30T15:28:23.197Z,8.19
2022-11-30T15:30:55.109Z,8.18
2022-11-30T15:33:24.918Z,8.05
2022-11-30T15:36:18.835Z,8.25
2022-11-30T15:38:51.578Z,8.00
2022-11-30T15:41:22.677Z,7.60
2022-11-30T15:43:54.789Z,8.08
2022-11-30T15:46:41.401Z,8.15
2022-11-30T15:49:26.049Z,8.50
2022-11-30T15:52:04.973Z,7.85
2022-11-30T15:54:44.609Z,8.42
2022-11-30T15:57:12.908Z,8.23
2022-11-30T15:59:41.394Z,8.01
2022-11-30T16:02:44.681Z,7.92
2022-11-30T16:05:14.737Z,8.09
2022-11-30T16:08:01.611Z,7.92
2022-11-30T16:10:39.528Z,8.11
2022-11-30T16:13:07.439Z,7.79
2022-11-30T16:15:36.948Z,7.51
2022-11-30T16:18:07.950Z,7.56
2022-11-30T16:20:36.316Z,8.03
2022-11-30T16:23:06.110Z,7.91
2022-11-30T16:25:34.798Z,7.80
2022-11-30T16:28:03.350Z,7.94
2022-11-30T16:30:32.280Z,7.98
2022-11-30T16:33:00.240Z,7.84
2022-11-30T16:35:35.798Z,7.34
2022-11-30T16:38:04.664Z,7.93
2022-11-30T16:40:38.547Z,7.86
2022-11-30T16:43:07.281Z,8.24
2022-11-30T16:45:37.512Z,7.84
2022-11-30T16:48:06.274Z,7.77
2022-11-30T16:50:34.995Z,7.97
2022-11-30T16:53:04.327Z,7.95
2022-11-30T16:55:35.228Z,8.09
2022-11-30T16:58:03.795Z,8.03
2022-11-30T17:00:32.488Z,8.13
2022-11-30T17:03:05.975Z,8.00
2022-11-30T17:05:35.039Z,7.88
2022-11-30T17:08:03.327Z,7.37
2022-11-30T17:10:31.609Z,7.63
2022-11-30T17:12:59.940Z,7.65
2022-11-30T17:15:27.922Z,7.69
2022-11-30T17:17:59.373Z,7.41
2022-11-30T17:20:28.171Z,7.83
2022-11-30T17:22:56.143Z,7.48
2022-11-30T17:25:24.830Z,7.81
2022-11-30T17:27:53.249Z,7.53
2022-11-30T17:30:22.152Z,7.56
2022-11-30T17:32:51.114Z,7.07
2022-11-30T17:35:19.828Z,7.32
2022-11-30T17:37:47.938Z,7.42
2022-11-30T17:40:16.332Z,6.49
2022-11-30T17:42:44.669Z,6.14
2022-11-30T17:45:12.780Z,6.61
2022-11-30T17:47:40.882Z,6.35
2022-11-30T17:50:09.840Z,5.93
2022-11-30T17:52:37.858Z,6.30
2022-11-30T17:55:06.335Z,7.10
2022-11-30T17:57:34.653Z,6.44
2022-11-30T18:00:03.041Z,6.87
2022-11-30T18:02:32.833Z,6.19
2022-11-30T18:05:01.122Z,7.12
2022-11-30T18:07:29.096Z,5.94
2022-11-30T18:09:58.108Z,5.66
2022-11-30T18:12:26.318Z,5.83
2022-11-30T18:14:54.109Z,6.06
2022-11-30T18:17:22.059Z,6.76
2022-11-30T18:19:50.610Z,6.36
2022-11-30T18:22:18.370Z,6.20
2022-11-30T18:24:46.474Z,6.86
2022-11-30T18:27:15.046Z,6.79
2022-11-30T18:29:42.897Z,6.61
2022-11-30T18:32:10.819Z,6.87
2022-11-30T18:34:38.999Z,7.37
2022-11-30T18:37:06.928Z,6.37
2022-11-30T18:39:34.755Z,6.97
2022-11-30T18:42:02.980Z,6.39
2022-11-30T18:44:30.819Z,5.92
2022-11-30T18:46:58.679Z,6.09
2022-11-30T18:49:27.092Z,7.09
2022-11-30T18:51:55.004Z,6.28
2022-11-30T18:54:22.929Z,6.08
2022-11-30T18:56:51.149Z,6.79
2022-11-30T18:59:19.109Z,6.81
2022-11-30T19:01:47.080Z,6.71
2022-11-30T19:04:15.432Z,7.18
2022-11-30T19:06:43.746Z,6.75
2022-11-30T19:09:13.870Z,6.80
2022-11-30T19:11:43.163Z,6.59
2022-11-30T19:14:13.860Z,5.50
2022-11-30T19:16:42.744Z,6.14
2022-11-30T19:19:14.021Z,6.91
2022-11-30T19:21:44.508Z,6.75
2022-11-30T19:24:12.373Z,6.87
2022-11-30T19:26:40.491Z,6.36
2022-11-30T19:29:11.091Z,6.81
2022-11-30T19:31:38.968Z,6.32
2022-11-30T19:34:12.501Z,6.52
2022-11-30T19:36:41.916Z,7.17
2022-11-30T19:39:10.180Z,6.51
2022-11-30T19:41:37.930Z,6.88
2022-11-30T19:44:06.068Z,6.00
2022-11-30T19:46:34.850Z,6.75
2022-11-30T19:49:03.366Z,6.98
2022-11-30T19:51:31.827Z,5.98
2022-11-30T19:54:01.608Z,6.75
2022-11-30T19:56:31.623Z,6.94
2022-11-30T19:59:05.193Z,6.65
2022-11-30T20:01:34.742Z,5.47
2022-11-30T20:04:03.679Z,5.83
2022-11-30T20:06:34.501Z,6.06
2022-11-30T20:09:04.198Z,6.06
2022-11-30T20:11:33.170Z,6.17
2022-11-30T20:14:01.110Z,6.49
2022-11-30T20:16:29.297Z,6.25
2022-11-30T20:19:01.006Z,5.98
2022-11-30T20:21:31.382Z,6.42
2022-11-30T20:24:01.774Z,7.00
2022-11-30T20:26:32.078Z,6.40
2022-11-30T20:29:01.830Z,6.85
2022-11-30T20:31:31.144Z,7.08
2022-11-30T20:33:59.619Z,7.12
2022-11-30T20:36:28.039Z,6.25
2022-11-30T20:38:58.137Z,6.01
2022-11-30T20:41:26.492Z,6.18
2022-11-30T20:43:55.087Z,6.38
2022-11-30T20:46:24.596Z,5.84
2022-11-30T20:48:52.599Z,6.36
2022-11-30T20:51:32.022Z,6.91
2022-11-30T20:54:02.141Z,5.88
2022-11-30T20:56:30.423Z,6.22
2022-11-30T20:59:01.570Z,6.24
2022-11-30T21:01:29.583Z,6.00
2022-11-30T21:03:59.696Z,6.47
2022-11-30T21:06:31.434Z,6.54
2022-11-30T21:09:00.173Z,6.18
2022-11-30T21:11:28.873Z,6.05
2022-11-30T21:13:57.679Z,6.54
2022-11-30T21:16:29.100Z,6.89
2022-11-30T21:18:59.182Z,7.11
2022-11-30T21:21:33.276Z,6.14
2022-11-30T21:24:03.683Z,6.47
2022-11-30T21:26:34.347Z,6.78
2022-11-30T21:29:07.509Z,6.28
2022-11-30T21:31:35.881Z,5.91
2022-11-30T21:34:05.122Z,5.42
2022-11-30T21:36:33.206Z,6.40
2022-11-30T21:39:05.990Z,6.29
2022-11-30T21:41:35.651Z,6.26
2022-11-30T21:44:06.059Z,5.94
2022-11-30T21:46:34.320Z,6.16
2022-11-30T21:49:02.479Z,6.53
2022-11-30T21:51:32.008Z,6.61
2022-11-30T21:54:02.500Z,6.60
2022-11-30T21:56:33.513Z,6.17
2022-11-30T21:59:01.789Z,6.35
2022-11-30T22:01:35.109Z,6.42
2022-11-30T22:04:04.624Z,6.46
2022-11-30T22:06:34.079Z,6.76
2022-11-30T22:09:08.084Z,6.78
2022-11-30T22:11:39.239Z,7.33
2022-11-30T22:14:10.681Z,7.31
2022-11-30T22:16:39.080Z,6.73
2022-11-30T22:19:07.490Z,6.94
2022-11-30T22:21:35.581Z,6.95
2022-11-30T22:24:09.728Z,7.30
2022-11-30T22:26:42.788Z,7.25
2022-11-30T22:29:16.399Z,7.07
2022-11-30T22:31:46.168Z,6.99
2022-11-30T22:34:15.028Z,6.47
2022-11-30T22:36:44.580Z,7.18
2022-11-30T22:39:12.397Z,6.44
2022-11-30T22:41:42.028Z,6.79
2022-11-30T22:44:14.766Z,6.85
2022-11-30T22:46:44.346Z,6.83
2022-11-30T22:49:19.908Z,6.99
2022-11-30T22:51:49.624Z,7.38
2022-11-30T22:54:17.692Z,7.05
2022-11-30T22:56:46.822Z,6.94
2022-11-30T22:59:16.055Z,6.96
2022-11-30T23:01:46.343Z,6.75
2022-11-30T23:04:16.600Z,7.29
2022-11-30T23:06:45.580Z,6.96
2022-11-30T23:09:15.883Z,7.18
2022-11-30T23:11:44.290Z,7.43
2022-11-30T23:14:12.400Z,6.92
2022-11-30T23:16:40.503Z,6.73
2022-11-30T23:19:10.271Z,6.89
2022-11-30T23:21:41.826Z,6.45
2022-11-30T23:24:15.217Z,6.62
2022-11-30T23:26:43.485Z,6.93
2022-11-30T23:29:13.900Z,6.76
2022-11-30T23:31:42.869Z,6.42
2022-11-30T23:34:14.290Z,6.67
2022-11-30T23:36:42.574Z,6.03
2022-11-30T23:39:15.610Z,6.79
2022-11-30T23:41:43.800Z,6.40
2022-11-30T23:44:12.139Z,6.19
2022-11-30T23:46:40.333Z,6.33
2022-11-30T23:49:08.628Z,6.38
2022-11-30T23:51:36.549Z,6.39
2022-11-30T23:54:04.951Z,5.91
2022-11-30T23:56:33.081Z,6.14
2022-11-30T23:59:01.040Z,6.09
